createdAt,value
2018-07-08T00:07:06.539Z,0
2018-07-08T00:17:06.417Z,0
2018-07-08T00:27:06.022Z,0
2018-07-08T00:37:05.934Z,0
2018-07-08T00:47:05.900Z,0
2018-07-08T00:57:06.009Z,0
2018-07-08T01:07:05.916Z,0
2018-07-08T01:17:06.040Z,0
2018-07-08T01:27:05.961Z,0
2018-07-08T01:37:06.009Z,0
2018-07-08T01:47:05.978Z,0
2018-07-08T01:57:06.051Z,0
2018-07-08T02:07:06.113Z,0
2018-07-08T02:17:06.032Z,0
2018-07-08T02:27:06.037Z,0
2018-07-08T02:37:06.121Z,0
2018-07-08T02:47:06.043Z,0
2018-07-08T02:57:06.108Z,0
2018-07-08T03:07:06.053Z,0
2018-07-08T03:17:06.176Z,5
2018-07-08T03:27:07.158Z,10
2018-07-08T03:37:06.051Z,15
2018-07-08T03:47:06.135Z,25
2018-07-08T03:57:06.060Z,35
2018-07-08T04:07:06.148Z,45
2018-07-08T04:17:06.206Z,55
2018-07-08T04:27:06.129Z,60
2018-07-08T04:37:06.143Z,65
2018-07-08T04:47:06.170Z,75
2018-07-08T04:57:06.151Z,85
2018-07-08T05:07:06.251Z,90
2018-07-08T05:23:33.413Z,105
2018-07-08T05:27:06.133Z,105
2018-07-08T05:37:06.219Z,100
2018-07-08T05:47:06.264Z,130
2018-07-08T05:57:06.228Z,190
2018-07-08T06:07:06.303Z,245
2018-07-08T06:17:06.301Z,260
2018-07-08T06:27:06.329Z,275
2018-07-08T06:37:06.416Z,285
2018-07-08T06:47:06.224Z,305
2018-07-08T06:57:06.372Z,335
2018-07-08T07:07:06.263Z,360
2018-07-08T07:17:06.252Z,350
2018-07-08T07:27:06.255Z,355
2018-07-08T07:37:06.334Z,370
2018-07-08T07:47:06.398Z,375
2018-07-08T07:57:06.322Z,370
2018-07-08T08:07:06.326Z,385
2018-07-08T08:17:06.275Z,380
2018-07-08T08:27:06.359Z,370
2018-07-08T08:37:07.694Z,365
2018-07-08T08:47:06.648Z,340
2018-07-08T08:57:06.330Z,325
2018-07-08T09:07:06.377Z,210
2018-07-08T09:17:06.333Z,125
2018-07-08T09:27:06.291Z,110
2018-07-08T09:37:06.338Z,110
2018-07-08T09:47:06.313Z,110
2018-07-08T09:57:06.402Z,110
2018-07-08T10:07:06.394Z,110
2018-07-08T10:17:06.296Z,115
2018-07-08T10:27:06.352Z,110
2018-07-08T10:37:06.355Z,110
2018-07-08T10:47:06.374Z,110
2018-07-08T10:57:06.513Z,115
2018-07-08T11:07:06.316Z,115
2018-07-08T11:17:06.436Z,115
2018-07-08T11:27:06.324Z,115
2018-07-08T11:37:06.405Z,115
2018-07-08T11:47:06.331Z,115
2018-07-08T11:57:06.311Z,115
2018-07-08T12:07:10.989Z,115
2018-07-08T12:17:06.349Z,115
2018-07-08T12:27:06.389Z,115
2018-07-08T12:37:06.323Z,115
2018-07-08T12:47:06.377Z,115
2018-07-08T12:57:06.897Z,115
2018-07-08T13:07:06.355Z,115
2018-07-08T13:17:06.354Z,115
2018-07-08T13:27:06.413Z,115
2018-07-08T13:37:06.377Z,115
2018-07-08T13:47:06.549Z,115
2018-07-08T13:57:06.406Z,115
2018-07-08T14:07:06.713Z,115
2018-07-08T14:17:06.536Z,110
2018-07-08T14:27:06.379Z,110
2018-07-08T14:37:06.631Z,110
2018-07-08T14:47:06.381Z,110
2018-07-08T14:57:06.432Z,105
2018-07-08T15:07:06.490Z,110
2018-07-08T15:17:06.474Z,105
2018-07-08T15:27:07.473Z,105
2018-07-08T15:37:11.317Z,105
2018-07-08T15:47:44.366Z,100
2018-07-08T15:57:06.429Z,100
2018-07-08T16:07:06.459Z,100
2018-07-08T16:17:06.526Z,100
2018-07-08T16:27:06.707Z,100
2018-07-08T16:37:08.099Z,100
2018-07-08T16:47:07.865Z,95
2018-07-08T16:57:06.649Z,90
2018-07-08T17:07:07.215Z,85
2018-07-08T17:17:06.599Z,80
2018-07-08T17:27:06.507Z,80
2018-07-08T17:37:06.407Z,75
2018-07-08T17:47:06.397Z,75
2018-07-08T17:57:06.395Z,70
2018-07-08T18:07:06.512Z,65
2018-07-08T18:17:06.569Z,60
2018-07-08T18:27:06.919Z,55
2018-07-08T18:37:06.524Z,50
2018-07-08T18:47:06.507Z,45
2018-07-08T18:57:06.565Z,35
2018-07-08T19:07:06.587Z,30
2018-07-08T19:17:07.490Z,20
2018-07-08T19:27:06.971Z,15
2018-07-08T19:37:06.792Z,10
2018-07-08T19:47:06.539Z,5
2018-07-08T19:57:06.506Z,0
2018-07-08T20:07:06.746Z,0
2018-07-08T20:17:06.545Z,0
2018-07-08T20:27:06.724Z,0
2018-07-08T20:37:06.693Z,0
2018-07-08T20:47:07.705Z,0
2018-07-08T20:57:06.766Z,0
2018-07-08T21:07:06.443Z,0
2018-07-08T21:17:06.483Z,0
2018-07-08T21:27:06.451Z,0
2018-07-08T21:37:06.611Z,0
2018-07-08T21:47:06.497Z,0
2018-07-08T21:57:07.453Z,0
2018-07-08T22:07:07.540Z,0
2018-07-08T22:17:06.577Z,0
2018-07-08T22:27:06.400Z,0
2018-07-08T22:37:15.927Z,0
2018-07-08T22:47:10.758Z,0
2018-07-08T22:57:06.514Z,0
2018-07-08T23:07:06.743Z,0
2018-07-08T23:17:06.469Z,0
2018-07-08T23:27:06.459Z,0
2018-07-08T23:37:06.579Z,0
2018-07-08T23:47:06.981Z,0
2018-07-08T23:57:06.409Z,0
